VDSR Airport Information

Runway Information
Runway 05 Length 8366 ft width 148 ft
Elevation 51 ft Threshold 0 ft Heading 48
Runway 23 Length 8366 ft Width 148 ft
Elevation 60 ft Threshold 0 ft Heading 228
Airport Frequencies
Type APP Name APP Frequency 124.3 MHZ
Type ATIS Name ATIS Frequency 129.95 MHZ
Type TWR Name TWR Frequency 118.5 MHZ
Airport Navaids
Type NDB Name Siem Reap Frequency 441 KHZ
Type VOR-DME Name Siem Reap Frequency 113800 KHZ
Airport Weather Information & NOTAM
ADDS - METARS form results

(2201 UTC 22 July 2018)
 
METAR text: VDSR 222130Z 17003KT 8000 SCT015 BKN040 26/26 Q1003
Conditions at: VDSR (SIEMREAP , KH) observed 2130 UTC 22 July 2018
Temperature: 26.0°C (79°F)
Dewpoint: 26.0°C (79°F) [RH = 100%]
Pressure (altimeter): 29.62 inches Hg (1003.0 mb)
Winds: from the S (170 degrees) at 3 MPH (3 knots; 1.6 m/s)
Visibility: 5 miles (8 km)
Ceiling: 4000 feet AGL
Clouds: scattered clouds at 1500 feet AGL
broken clouds at 4000 feet AGL
Weather: no significant weather observed at this time